sensor_id;sensor_type;location;lat;lon;timestamp;pressure;altitude;pressure_sealevel;temperature;humidity
30897;BME280;64229;52.246;21.054;2023-04-27T00:00:18;100562.66;;;5.16;66.22
30897;BME280;64229;52.246;21.054;2023-04-27T00:02:43;100563.75;;;5.09;66.24
30897;BME280;64229;52.246;21.054;2023-04-27T00:05:08;100572.16;;;5.06;67.22
30897;BME280;64229;52.246;21.054;2023-04-27T00:07:35;100558.63;;;4.96;67.80
30897;BME280;64229;52.246;21.054;2023-04-27T00:10:01;100566.84;;;4.87;69.13
30897;BME280;64229;52.246;21.054;2023-04-27T00:12:26;100561.06;;;4.97;68.82
30897;BME280;64229;52.246;21.054;2023-04-27T00:14:51;100571.34;;;5.05;68.05
30897;BME280;64229;52.246;21.054;2023-04-27T00:17:17;100546.50;;;4.88;68.03
30897;BME280;64229;52.246;21.054;2023-04-27T00:19:42;100561.78;;;5.04;68.00
30897;BME280;64229;52.246;21.054;2023-04-27T00:22:07;100561.94;;;5.09;67.89
30897;BME280;64229;52.246;21.054;2023-04-27T00:24:33;100566.84;;;5.06;67.91
30897;BME280;64229;52.246;21.054;2023-04-27T00:26:58;100564.88;;;5.01;68.12
30897;BME280;64229;52.246;21.054;2023-04-27T00:29:24;100575.75;;;4.93;68.08
30897;BME280;64229;52.246;21.054;2023-04-27T00:31:49;100571.91;;;4.89;68.40
30897;BME280;64229;52.246;21.054;2023-04-27T00:34:14;100572.22;;;4.81;69.08
30897;BME280;64229;52.246;21.054;2023-04-27T00:36:40;100577.28;;;4.82;68.78
30897;BME280;64229;52.246;21.054;2023-04-27T00:39:05;100577.88;;;4.84;69.35
30897;BME280;64229;52.246;21.054;2023-04-27T00:41:31;100573.84;;;4.82;69.39
30897;BME280;64229;52.246;21.054;2023-04-27T00:43:57;100578.16;;;4.76;69.59
30897;BME280;64229;52.246;21.054;2023-04-27T00:46:23;100555.91;;;4.65;69.62
30897;BME280;64229;52.246;21.054;2023-04-27T00:48:48;100575.53;;;4.76;69.97
30897;BME280;64229;52.246;21.054;2023-04-27T00:51:14;100571.75;;;4.65;70.25
30897;BME280;64229;52.246;21.054;2023-04-27T00:53:40;100566.97;;;4.56;70.84
30897;BME280;64229;52.246;21.054;2023-04-27T00:56:06;100579.56;;;4.60;71.10
30897;BME280;64229;52.246;21.054;2023-04-27T00:58:31;100573.25;;;4.61;70.97
30897;BME280;64229;52.246;21.054;2023-04-27T01:00:57;100576.25;;;4.65;71.08
30897;BME280;64229;52.246;21.054;2023-04-27T01:03:23;100581.47;;;4.72;71.27
30897;BME280;64229;52.246;21.054;2023-04-27T01:05:49;100584.97;;;4.65;71.14
30897;BME280;64229;52.246;21.054;2023-04-27T01:08:14;100586.81;;;4.65;70.89
30897;BME280;64229;52.246;21.054;2023-04-27T01:10:39;100590.78;;;4.74;70.77
30897;BME280;64229;52.246;21.054;2023-04-27T01:13:05;100589.03;;;4.68;70.66
30897;BME280;64229;52.246;21.054;2023-04-27T01:15:30;100588.50;;;4.59;71.26
30897;BME280;64229;52.246;21.054;2023-04-27T01:17:59;100586.00;;;4.64;70.76
30897;BME280;64229;52.246;21.054;2023-04-27T01:20:25;100582.63;;;4.57;70.91
30897;BME280;64229;52.246;21.054;2023-04-27T01:22:57;100587.97;;;4.51;71.54
30897;BME280;64229;52.246;21.054;2023-04-27T01:25:23;100598.09;;;4.54;71.46
30897;BME280;64229;52.246;21.054;2023-04-27T01:27:49;100596.06;;;4.56;71.48
30897;BME280;64229;52.246;21.054;2023-04-27T01:30:14;100586.91;;;4.58;70.71
30897;BME280;64229;52.246;21.054;2023-04-27T01:32:40;100599.81;;;4.67;70.75
30897;BME280;64229;52.246;21.054;2023-04-27T01:35:06;100601.44;;;4.68;71.15
30897;BME280;64229;52.246;21.054;2023-04-27T01:37:32;100578.00;;;4.53;70.67
30897;BME280;64229;52.246;21.054;2023-04-27T01:39:57;100593.13;;;4.64;70.12
30897;BME280;64229;52.246;21.054;2023-04-27T01:42:22;100601.00;;;4.71;70.22
30897;BME280;64229;52.246;21.054;2023-04-27T01:44:48;100601.94;;;4.58;70.61
30897;BME280;64229;52.246;21.054;2023-04-27T01:47:16;100604.19;;;4.54;71.19
30897;BME280;64229;52.246;21.054;2023-04-27T01:49:42;100596.44;;;4.59;71.15
30897;BME280;64229;52.246;21.054;2023-04-27T01:52:07;100575.03;;;4.43;71.84
30897;BME280;64229;52.246;21.054;2023-04-27T01:54:33;100609.56;;;4.48;71.85
30897;BME280;64229;52.246;21.054;2023-04-27T01:56:58;100613.72;;;4.37;72.41
30897;BME280;64229;52.246;21.054;2023-04-27T01:59:24;100608.00;;;4.40;72.66
30897;BME280;64229;52.246;21.054;2023-04-27T02:01:49;100600.88;;;4.41;72.48
30897;BME280;64229;52.246;21.054;2023-04-27T02:04:14;100611.88;;;4.38;73.30
30897;BME280;64229;52.246;21.054;2023-04-27T02:06:40;100606.97;;;4.41;72.95
30897;BME280;64229;52.246;21.054;2023-04-27T02:09:05;100605.56;;;4.39;72.89
30897;BME280;64229;52.246;21.054;2023-04-27T02:11:31;100607.44;;;4.31;73.36
30897;BME280;64229;52.246;21.054;2023-04-27T02:13:56;100609.06;;;4.32;73.44
30897;BME280;64229;52.246;21.054;2023-04-27T02:16:22;100610.84;;;4.39;73.16
30897;BME280;64229;52.246;21.054;2023-04-27T02:18:47;100613.44;;;4.45;72.30
30897;BME280;64229;52.246;21.054;2023-04-27T02:21:13;100605.34;;;4.40;72.63
30897;BME280;64229;52.246;21.054;2023-04-27T02:23:38;100601.69;;;4.41;72.96
30897;BME280;64229;52.246;21.054;2023-04-27T02:26:04;100609.84;;;4.40;72.87
30897;BME280;64229;52.246;21.054;2023-04-27T02:28:30;100608.59;;;4.42;73.20
30897;BME280;64229;52.246;21.054;2023-04-27T02:30:56;100609.13;;;4.51;72.99
30897;BME280;64229;52.246;21.054;2023-04-27T02:33:21;100596.75;;;4.45;73.05
30897;BME280;64229;52.246;21.054;2023-04-27T02:35:47;100597.78;;;4.44;72.37
30897;BME280;64229;52.246;21.054;2023-04-27T02:38:12;100604.69;;;4.45;72.50
30897;BME280;64229;52.246;21.054;2023-04-27T02:40:37;100599.81;;;4.48;72.71
30897;BME280;64229;52.246;21.054;2023-04-27T02:43:03;100607.56;;;4.43;72.36
30897;BME280;64229;52.246;21.054;2023-04-27T02:45:28;100608.13;;;4.45;72.19
30897;BME280;64229;52.246;21.054;2023-04-27T02:47:54;100610.59;;;4.47;72.38
30897;BME280;64229;52.246;21.054;2023-04-27T02:50:19;100614.84;;;4.48;72.12
30897;BME280;64229;52.246;21.054;2023-04-27T02:52:44;100618.53;;;4.47;72.09
30897;BME280;64229;52.246;21.054;2023-04-27T02:55:10;100615.47;;;4.43;72.43
30897;BME280;64229;52.246;21.054;2023-04-27T02:57:35;100614.63;;;4.49;71.81
30897;BME280;64229;52.246;21.054;2023-04-27T03:00:01;100609.75;;;4.46;72.33
30897;BME280;64229;52.246;21.054;2023-04-27T03:02:28;100615.47;;;4.43;72.69
30897;BME280;64229;52.246;21.054;2023-04-27T03:04:53;100622.69;;;4.36;72.25
30897;BME280;64229;52.246;21.054;2023-04-27T03:07:20;100625.50;;;4.34;72.86
30897;BME280;64229;52.246;21.054;2023-04-27T03:09:45;100625.91;;;4.38;72.68
30897;BME280;64229;52.246;21.054;2023-04-27T03:12:11;100625.94;;;4.31;73.04
30897;BME280;64229;52.246;21.054;2023-04-27T03:14:36;100618.91;;;4.25;72.82
30897;BME280;64229;52.246;21.054;2023-04-27T03:17:01;100622.13;;;4.27;72.71
30897;BME280;64229;52.246;21.054;2023-04-27T03:19:27;100633.09;;;4.24;73.19
30897;BME280;64229;52.246;21.054;2023-04-27T03:21:52;100635.16;;;4.22;73.55
30897;BME280;64229;52.246;21.054;2023-04-27T03:24:18;100626.28;;;4.17;73.83
30897;BME280;64229;52.246;21.054;2023-04-27T03:26:43;100637.00;;;4.22;73.87
30897;BME280;64229;52.246;21.054;2023-04-27T03:29:08;100633.72;;;4.26;74.41
30897;BME280;64229;52.246;21.054;2023-04-27T03:31:34;100635.22;;;4.16;74.37
30897;BME280;64229;52.246;21.054;2023-04-27T03:33:59;100632.13;;;4.19;74.76
30897;BME280;64229;52.246;21.054;2023-04-27T03:36:24;100629.72;;;4.17;74.67
30897;BME280;64229;52.246;21.054;2023-04-27T03:38:51;100627.44;;;4.21;74.26
30897;BME280;64229;52.246;21.054;2023-04-27T03:41:16;100630.34;;;4.13;74.75
30897;BME280;64229;52.246;21.054;2023-04-27T03:43:41;100625.53;;;4.03;74.76
30897;BME280;64229;52.246;21.054;2023-04-27T03:46:07;100633.03;;;4.06;75.36
30897;BME280;64229;52.246;21.054;2023-04-27T03:48:32;100628.97;;;4.03;75.92
30897;BME280;64229;52.246;21.054;2023-04-27T03:50:59;100641.13;;;4.11;75.92
30897;BME280;64229;52.246;21.054;2023-04-27T03:53:25;100649.44;;;4.15;75.54
30897;BME280;64229;52.246;21.054;2023-04-27T03:55:50;100637.25;;;4.14;75.41
30897;BME280;64229;52.246;21.054;2023-04-27T03:58:15;100640.66;;;4.21;76.04
30897;BME280;64229;52.246;21.054;2023-04-27T04:00:42;100650.03;;;4.17;76.90
30897;BME280;64229;52.246;21.054;2023-04-27T04:03:07;100655.69;;;4.20;77.71
30897;BME280;64229;52.246;21.054;2023-04-27T04:05:33;100653.84;;;4.27;77.77
30897;BME280;64229;52.246;21.054;2023-04-27T04:07:58;100655.22;;;4.30;77.58
30897;BME280;64229;52.246;21.054;2023-04-27T04:10:24;100665.59;;;4.31;77.33
30897;BME280;64229;52.246;21.054;2023-04-27T04:12:50;100674.53;;;4.30;77.38
30897;BME280;64229;52.246;21.054;2023-04-27T04:15:16;100660.50;;;4.30;76.48
30897;BME280;64229;52.246;21.054;2023-04-27T04:17:41;100677.50;;;4.41;74.95
30897;BME280;64229;52.246;21.054;2023-04-27T04:20:07;100683.75;;;4.46;73.95
30897;BME280;64229;52.246;21.054;2023-04-27T04:22:34;100668.34;;;4.43;73.35
30897;BME280;64229;52.246;21.054;2023-04-27T04:24:59;100663.88;;;4.44;73.25
30897;BME280;64229;52.246;21.054;2023-04-27T04:27:24;100671.53;;;4.52;72.70
30897;BME280;64229;52.246;21.054;2023-04-27T04:29:50;100658.91;;;4.29;73.09
30897;BME280;64229;52.246;21.054;2023-04-27T04:32:15;100673.03;;;4.41;73.26
30897;BME280;64229;52.246;21.054;2023-04-27T04:34:43;100676.66;;;4.47;73.12
30897;BME280;64229;52.246;21.054;2023-04-27T04:37:08;100663.72;;;4.39;72.94
30897;BME280;64229;52.246;21.054;2023-04-27T04:39:33;100675.84;;;4.46;73.37
30897;BME280;64229;52.246;21.054;2023-04-27T04:41:59;100671.53;;;4.52;73.16
30897;BME280;64229;52.246;21.054;2023-04-27T04:44:24;100659.97;;;4.46;73.03
30897;BME280;64229;52.246;21.054;2023-04-27T04:46:50;100668.13;;;4.45;73.03
30897;BME280;64229;52.246;21.054;2023-04-27T04:49:16;100674.97;;;4.52;73.44
30897;BME280;64229;52.246;21.054;2023-04-27T04:51:43;100677.41;;;4.54;72.67
30897;BME280;64229;52.246;21.054;2023-04-27T04:54:09;100677.81;;;4.57;73.55
30897;BME280;64229;52.246;21.054;2023-04-27T04:56:34;100653.47;;;4.49;72.99
30897;BME280;64229;52.246;21.054;2023-04-27T04:59:00;100677.63;;;4.77;72.84
30897;BME280;64229;52.246;21.054;2023-04-27T05:01:25;100686.09;;;4.86;72.47
30897;BME280;64229;52.246;21.054;2023-04-27T05:03:51;100685.38;;;4.79;72.73
30897;BME280;64229;52.246;21.054;2023-04-27T05:06:16;100685.28;;;4.85;72.08
30897;BME280;64229;52.246;21.054;2023-04-27T05:08:41;100676.41;;;4.80;72.32
30897;BME280;64229;52.246;21.054;2023-04-27T05:11:07;100688.69;;;4.92;71.80
30897;BME280;64229;52.246;21.054;2023-04-27T05:13:32;100697.66;;;5.10;71.05
30897;BME280;64229;52.246;21.054;2023-04-27T05:15:57;100696.97;;;5.21;70.06
30897;BME280;64229;52.246;21.054;2023-04-27T05:18:23;100702.47;;;5.19;70.35
30897;BME280;64229;52.246;21.054;2023-04-27T05:20:48;100692.91;;;5.18;70.57
30897;BME280;64229;52.246;21.054;2023-04-27T05:23:13;100692.84;;;5.25;70.17
30897;BME280;64229;52.246;21.054;2023-04-27T05:25:39;100699.47;;;5.34;69.92
30897;BME280;64229;52.246;21.054;2023-04-27T05:28:08;100693.00;;;5.48;69.12
30897;BME280;64229;52.246;21.054;2023-04-27T05:30:33;100699.31;;;5.47;68.97
30897;BME280;64229;52.246;21.054;2023-04-27T05:32:59;100700.66;;;5.57;68.97
30897;BME280;64229;52.246;21.054;2023-04-27T05:35:24;100709.16;;;5.59;69.06
30897;BME280;64229;52.246;21.054;2023-04-27T05:37:50;100702.19;;;5.64;68.61
30897;BME280;64229;52.246;21.054;2023-04-27T05:40:16;100709.38;;;5.94;66.75
30897;BME280;64229;52.246;21.054;2023-04-27T05:42:41;100713.66;;;5.95;65.61
30897;BME280;64229;52.246;21.054;2023-04-27T05:45:07;100709.88;;;6.02;65.85
30897;BME280;64229;52.246;21.054;2023-04-27T05:47:33;100713.91;;;6.05;66.05
30897;BME280;64229;52.246;21.054;2023-04-27T05:49:58;100710.63;;;5.91;66.46
30897;BME280;64229;52.246;21.054;2023-04-27T05:52:23;100713.09;;;6.04;65.64
30897;BME280;64229;52.246;21.054;2023-04-27T05:54:54;100716.84;;;6.15;65.35
30897;BME280;64229;52.246;21.054;2023-04-27T05:57:20;100705.53;;;6.08;65.15
30897;BME280;64229;52.246;21.054;2023-04-27T05:59:46;100720.38;;;6.27;64.93
30897;BME280;64229;52.246;21.054;2023-04-27T06:02:11;100720.47;;;6.32;64.54
30897;BME280;64229;52.246;21.054;2023-04-27T06:04:36;100725.91;;;6.37;63.80
30897;BME280;64229;52.246;21.054;2023-04-27T06:07:09;100726.16;;;6.48;63.13
30897;BME280;64229;52.246;21.054;2023-04-27T06:09:35;100734.72;;;6.50;63.08
30897;BME280;64229;52.246;21.054;2023-04-27T06:12:01;100730.09;;;6.57;63.25
30897;BME280;64229;52.246;21.054;2023-04-27T06:14:28;100720.75;;;6.43;63.88
30897;BME280;64229;52.246;21.054;2023-04-27T06:16:53;100730.56;;;6.54;63.85
30897;BME280;64229;52.246;21.054;2023-04-27T06:19:19;100730.69;;;6.59;64.09
30897;BME280;64229;52.246;21.054;2023-04-27T06:21:45;100736.97;;;6.76;62.43
30897;BME280;64229;52.246;21.054;2023-04-27T06:24:10;100735.81;;;6.72;62.09
30897;BME280;64229;52.246;21.054;2023-04-27T06:26:35;100732.59;;;6.70;62.60
30897;BME280;64229;52.246;21.054;2023-04-27T06:29:01;100741.00;;;6.79;62.98
30897;BME280;64229;52.246;21.054;2023-04-27T06:31:28;100705.00;;;6.59;62.83
30897;BME280;64229;52.246;21.054;2023-04-27T06:33:54;100718.72;;;6.68;62.78
30897;BME280;64229;52.246;21.054;2023-04-27T06:36:19;100727.78;;;7.02;61.83
30897;BME280;64229;52.246;21.054;2023-04-27T06:38:45;100720.38;;;7.16;61.01
30897;BME280;64229;52.246;21.054;2023-04-27T06:41:10;100729.38;;;7.38;59.96
30897;BME280;64229;52.246;21.054;2023-04-27T06:43:36;100720.81;;;7.48;60.18
30897;BME280;64229;52.246;21.054;2023-04-27T06:46:01;100734.63;;;7.62;58.79
30897;BME280;64229;52.246;21.054;2023-04-27T06:48:27;100730.69;;;7.64;58.64
30897;BME280;64229;52.246;21.054;2023-04-27T06:50:52;100737.44;;;7.55;59.61
30897;BME280;64229;52.246;21.054;2023-04-27T06:53:17;100708.84;;;7.34;59.98
30897;BME280;64229;52.246;21.054;2023-04-27T06:55:43;100738.22;;;7.67;59.05
30897;BME280;64229;52.246;21.054;2023-04-27T06:58:08;100698.81;;;7.64;57.32
30897;BME280;64229;52.246;21.054;2023-04-27T07:00:33;100737.19;;;8.08;56.73
30897;BME280;64229;52.246;21.054;2023-04-27T07:02:59;100741.66;;;8.20;55.75
30897;BME280;64229;52.246;21.054;2023-04-27T07:05:24;100741.44;;;8.09;56.15
30897;BME280;64229;52.246;21.054;2023-04-27T07:07:50;100743.88;;;8.11;56.90
30897;BME280;64229;52.246;21.054;2023-04-27T07:10:16;100750.00;;;8.11;57.14
30897;BME280;64229;52.246;21.054;2023-04-27T07:12:42;100753.97;;;8.26;56.19
30897;BME280;64229;52.246;21.054;2023-04-27T07:15:08;100743.72;;;8.18;56.37
30897;BME280;64229;52.246;21.054;2023-04-27T07:17:33;100747.47;;;8.33;55.74
30897;BME280;64229;52.246;21.054;2023-04-27T07:20:00;100750.28;;;8.55;55.16
30897;BME280;64229;52.246;21.054;2023-04-27T07:22:25;100750.94;;;8.62;55.80
30897;BME280;64229;52.246;21.054;2023-04-27T07:24:51;100746.84;;;8.88;53.99
30897;BME280;64229;52.246;21.054;2023-04-27T07:27:16;100742.41;;;8.94;53.38
30897;BME280;64229;52.246;21.054;2023-04-27T07:29:41;100750.31;;;8.89;52.35
30897;BME280;64229;52.246;21.054;2023-04-27T07:32:07;100753.19;;;8.70;52.82
30897;BME280;64229;52.246;21.054;2023-04-27T07:34:33;100753.22;;;8.87;53.22
30897;BME280;64229;52.246;21.054;2023-04-27T07:36:59;100750.47;;;8.99;52.35
30897;BME280;64229;52.246;21.054;2023-04-27T07:39:25;100738.56;;;9.40;52.09
30897;BME280;64229;52.246;21.054;2023-04-27T07:41:51;100750.53;;;11.69;48.69
30897;BME280;64229;52.246;21.054;2023-04-27T07:44:17;100752.78;;;15.37;38.18
30897;BME280;64229;52.246;21.054;2023-04-27T07:46:43;100753.81;;;17.76;32.82
30897;BME280;64229;52.246;21.054;2023-04-27T07:49:09;100764.38;;;20.13;28.74
30897;BME280;64229;52.246;21.054;2023-04-27T07:51:34;100759.06;;;21.03;26.09
30897;BME280;64229;52.246;21.054;2023-04-27T07:54:01;100764.44;;;21.67;24.99
30897;BME280;64229;52.246;21.054;2023-04-27T07:56:27;100766.19;;;20.53;26.70
30897;BME280;64229;52.246;21.054;2023-04-27T07:58:52;100768.09;;;17.90;29.64
30897;BME280;64229;52.246;21.054;2023-04-27T08:01:18;100768.06;;;16.32;31.88
30897;BME280;64229;52.246;21.054;2023-04-27T08:03:43;100775.25;;;14.54;34.87
30897;BME280;64229;52.246;21.054;2023-04-27T08:06:08;100772.09;;;14.42;36.02
30897;BME280;64229;52.246;21.054;2023-04-27T08:08:34;100768.00;;;15.95;34.30
30897;BME280;64229;52.246;21.054;2023-04-27T08:10:59;100775.38;;;18.39;29.96
30897;BME280;64229;52.246;21.054;2023-04-27T08:13:24;100775.75;;;18.46;30.47
30897;BME280;64229;52.246;21.054;2023-04-27T08:15:50;100777.66;;;20.58;27.75
30897;BME280;64229;52.246;21.054;2023-04-27T08:18:15;100777.81;;;20.44;27.58
30897;BME280;64229;52.246;21.054;2023-04-27T08:20:42;100766.41;;;21.03;26.74
30897;BME280;64229;52.246;21.054;2023-04-27T08:23:07;100771.66;;;21.63;25.95
30897;BME280;64229;52.246;21.054;2023-04-27T08:25:35;100757.72;;;22.45;25.29
30897;BME280;64229;52.246;21.054;2023-04-27T08:28:00;100764.41;;;24.23;23.43
30897;BME280;64229;52.246;21.054;2023-04-27T08:30:25;100768.00;;;22.39;24.78
30897;BME280;64229;52.246;21.054;2023-04-27T08:32:51;100767.31;;;21.33;25.48
30897;BME280;64229;52.246;21.054;2023-04-27T08:35:16;100771.66;;;19.96;26.29
30897;BME280;64229;52.246;21.054;2023-04-27T08:37:42;100757.38;;;17.85;28.98
30897;BME280;64229;52.246;21.054;2023-04-27T08:40:08;100759.03;;;17.26;30.19
30897;BME280;64229;52.246;21.054;2023-04-27T08:42:34;100764.22;;;16.38;31.33
30897;BME280;64229;52.246;21.054;2023-04-27T08:45:00;100761.41;;;15.10;33.75
30897;BME280;64229;52.246;21.054;2023-04-27T08:47:25;100756.00;;;14.81;35.08
30897;BME280;64229;52.246;21.054;2023-04-27T08:49:51;100743.75;;;14.65;35.15
30897;BME280;64229;52.246;21.054;2023-04-27T08:52:16;100759.56;;;14.27;35.64
30897;BME280;64229;52.246;21.054;2023-04-27T08:54:42;100746.13;;;13.78;36.90
30897;BME280;64229;52.246;21.054;2023-04-27T08:57:16;100761.03;;;13.29;37.55
30897;BME280;64229;52.246;21.054;2023-04-27T08:59:42;100762.09;;;13.08;38.63
30897;BME280;64229;52.246;21.054;2023-04-27T09:02:20;100762.38;;;12.76;39.23
30897;BME280;64229;52.246;21.054;2023-04-27T09:04:45;100751.34;;;12.37;39.97
30897;BME280;64229;52.246;21.054;2023-04-27T09:09:36;100757.53;;;11.70;41.21
30897;BME280;64229;52.246;21.054;2023-04-27T09:12:14;100766.50;;;11.48;42.14
30897;BME280;64229;52.246;21.054;2023-04-27T09:14:40;100743.78;;;11.09;42.91
30897;BME280;64229;52.246;21.054;2023-04-27T09:17:06;100767.97;;;10.92;44.29
30897;BME280;64229;52.246;21.054;2023-04-27T09:19:32;100758.81;;;10.83;44.89
30897;BME280;64229;52.246;21.054;2023-04-27T09:22:08;100765.63;;;10.68;45.15
30897;BME280;64229;52.246;21.054;2023-04-27T09:24:49;100763.44;;;10.33;45.67
30897;BME280;64229;52.246;21.054;2023-04-27T09:27:19;100760.69;;;10.28;46.00
30897;BME280;64229;52.246;21.054;2023-04-27T09:29:45;100740.06;;;9.97;46.37
30897;BME280;64229;52.246;21.054;2023-04-27T09:32:17;100767.72;;;10.12;46.57
30897;BME280;64229;52.246;21.054;2023-04-27T09:34:45;100749.91;;;9.96;47.12
30897;BME280;64229;52.246;21.054;2023-04-27T09:37:11;100755.47;;;9.90;48.12
30897;BME280;64229;52.246;21.054;2023-04-27T09:39:37;100767.97;;;9.89;50.27
30897;BME280;64229;52.246;21.054;2023-04-27T09:42:03;100767.13;;;9.67;51.00
30897;BME280;64229;52.246;21.054;2023-04-27T09:44:31;100766.66;;;9.48;51.72
30897;BME280;64229;52.246;21.054;2023-04-27T09:46:58;100755.59;;;9.39;51.87
30897;BME280;64229;52.246;21.054;2023-04-27T09:49:26;100751.22;;;9.50;52.23
30897;BME280;64229;52.246;21.054;2023-04-27T09:51:54;100771.13;;;9.64;51.55
30897;BME280;64229;52.246;21.054;2023-04-27T09:54:24;100761.34;;;9.92;51.71
30897;BME280;64229;52.246;21.054;2023-04-27T09:57:33;100771.34;;;10.23;50.06
30897;BME280;64229;52.246;21.054;2023-04-27T10:02:27;100771.44;;;10.60;48.31
30897;BME280;64229;52.246;21.054;2023-04-27T10:05:20;100765.97;;;10.45;49.15
30897;BME280;64229;52.246;21.054;2023-04-27T10:07:50;100752.25;;;10.36;49.07
30897;BME280;64229;52.246;21.054;2023-04-27T10:10:17;100766.25;;;10.22;48.58
30897;BME280;64229;52.246;21.054;2023-04-27T10:12:42;100762.63;;;10.11;48.04
30897;BME280;64229;52.246;21.054;2023-04-27T10:15:27;100760.19;;;10.09;47.33
30897;BME280;64229;52.246;21.054;2023-04-27T10:17:52;100765.53;;;10.09;46.47
30897;BME280;64229;52.246;21.054;2023-04-27T10:20:33;100770.81;;;10.04;46.42
30897;BME280;64229;52.246;21.054;2023-04-27T10:22:59;100754.63;;;10.11;47.02
30897;BME280;64229;52.246;21.054;2023-04-27T10:25:25;100774.50;;;10.47;45.94
30897;BME280;64229;52.246;21.054;2023-04-27T10:27:53;100768.22;;;10.58;45.04
30897;BME280;64229;52.246;21.054;2023-04-27T10:30:21;100763.97;;;10.62;45.08
30897;BME280;64229;52.246;21.054;2023-04-27T10:35:16;100768.75;;;10.87;44.53
30897;BME280;64229;52.246;21.054;2023-04-27T10:37:43;100763.66;;;10.86;43.15
30897;BME280;64229;52.246;21.054;2023-04-27T10:40:10;100749.44;;;10.80;42.37
30897;BME280;64229;52.246;21.054;2023-04-27T10:42:40;100766.72;;;10.72;42.54
30897;BME280;64229;52.246;21.054;2023-04-27T10:45:06;100770.09;;;10.63;43.15
30897;BME280;64229;52.246;21.054;2023-04-27T10:47:43;100769.22;;;10.52;42.91
30897;BME280;64229;52.246;21.054;2023-04-27T10:50:10;100763.13;;;10.57;43.09
30897;BME280;64229;52.246;21.054;2023-04-27T10:52:43;100768.84;;;10.70;43.61
30897;BME280;64229;52.246;21.054;2023-04-27T10:55:17;100770.81;;;10.80;43.03
30897;BME280;64229;52.246;21.054;2023-04-27T10:57:51;100778.06;;;10.85;43.01
30897;BME280;64229;52.246;21.054;2023-04-27T11:00:30;100780.78;;;10.90;42.80
30897;BME280;64229;52.246;21.054;2023-04-27T11:03:07;100781.03;;;10.88;43.18
30897;BME280;64229;52.246;21.054;2023-04-27T11:05:33;100751.22;;;10.69;43.32
30897;BME280;64229;52.246;21.054;2023-04-27T11:08:10;100784.88;;;11.02;43.23
30897;BME280;64229;52.246;21.054;2023-04-27T11:10:47;100788.97;;;10.83;44.17
30897;BME280;64229;52.246;21.054;2023-04-27T11:15:49;100788.50;;;10.86;44.55
30897;BME280;64229;52.246;21.054;2023-04-27T11:18:16;100789.66;;;10.68;44.70
30897;BME280;64229;52.246;21.054;2023-04-27T11:20:53;100782.63;;;10.57;45.03
30897;BME280;64229;52.246;21.054;2023-04-27T11:23:30;100785.72;;;10.49;44.30
30897;BME280;64229;52.246;21.054;2023-04-27T11:28:55;100784.31;;;10.41;40.38
30897;BME280;64229;52.246;21.054;2023-04-27T11:31:21;100782.91;;;10.34;39.49
30897;BME280;64229;52.246;21.054;2023-04-27T11:33:47;100789.75;;;10.25;39.22
30897;BME280;64229;52.246;21.054;2023-04-27T11:36:21;100786.97;;;10.20;39.12
30897;BME280;64229;52.246;21.054;2023-04-27T11:38:47;100791.50;;;10.19;39.56
30897;BME280;64229;52.246;21.054;2023-04-27T11:41:13;100777.63;;;10.17;39.37
30897;BME280;64229;52.246;21.054;2023-04-27T11:43:42;100776.28;;;10.14;40.01
30897;BME280;64229;52.246;21.054;2023-04-27T11:46:13;100778.56;;;10.06;40.07
30897;BME280;64229;52.246;21.054;2023-04-27T11:48:38;100749.41;;;9.77;39.54
30897;BME280;64229;52.246;21.054;2023-04-27T11:51:05;100782.66;;;9.92;40.12
30897;BME280;64229;52.246;21.054;2023-04-27T11:53:32;100770.88;;;10.09;40.60
30897;BME280;64229;52.246;21.054;2023-04-27T11:55:59;100777.38;;;10.19;40.50
30897;BME280;64229;52.246;21.054;2023-04-27T11:58:26;100774.81;;;10.24;40.49
30897;BME280;64229;52.246;21.054;2023-04-27T12:00:54;100782.38;;;10.32;40.71
30897;BME280;64229;52.246;21.054;2023-04-27T12:03:19;100780.91;;;10.46;40.49
30897;BME280;64229;52.246;21.054;2023-04-27T12:05:49;100788.00;;;10.62;40.75
30897;BME280;64229;52.246;21.054;2023-04-27T12:08:15;100778.34;;;10.88;40.14
30897;BME280;64229;52.246;21.054;2023-04-27T12:10:41;100774.25;;;11.08;39.35
30897;BME280;64229;52.246;21.054;2023-04-27T12:13:06;100768.03;;;10.97;39.43
30897;BME280;64229;52.246;21.054;2023-04-27T12:15:32;100762.19;;;11.42;39.72
30897;BME280;64229;52.246;21.054;2023-04-27T12:17:58;100745.31;;;11.84;38.80
30897;BME280;64229;52.246;21.054;2023-04-27T12:20:23;100758.84;;;12.40;37.51
30897;BME280;64229;52.246;21.054;2023-04-27T12:22:49;100762.31;;;12.40;36.66
30897;BME280;64229;52.246;21.054;2023-04-27T12:25:14;100767.59;;;12.05;36.17
30897;BME280;64229;52.246;21.054;2023-04-27T12:27:41;100778.19;;;11.84;36.31
30897;BME280;64229;52.246;21.054;2023-04-27T12:30:07;100781.34;;;11.34;36.83
30897;BME280;64229;52.246;21.054;2023-04-27T12:32:32;100782.63;;;11.21;36.48
30897;BME280;64229;52.246;21.054;2023-04-27T12:34:57;100789.94;;;10.99;36.79
30897;BME280;64229;52.246;21.054;2023-04-27T12:37:23;100795.19;;;10.62;37.18
30897;BME280;64229;52.246;21.054;2023-04-27T12:39:48;100792.47;;;10.30;38.04
30897;BME280;64229;52.246;21.054;2023-04-27T12:42:13;100784.09;;;10.21;38.49
30897;BME280;64229;52.246;21.054;2023-04-27T12:44:39;100786.28;;;10.24;38.71
30897;BME280;64229;52.246;21.054;2023-04-27T12:47:05;100798.13;;;10.33;38.80
30897;BME280;64229;52.246;21.054;2023-04-27T12:49:30;100793.13;;;10.69;38.60
30897;BME280;64229;52.246;21.054;2023-04-27T12:51:56;100785.22;;;11.11;38.48
30897;BME280;64229;52.246;21.054;2023-04-27T12:54:22;100790.41;;;11.70;38.38